sensor_id;sensor_type;location;lat;lon;timestamp;temperature;humidity
8595;DHT22;4335;48.860;9.198;2023-03-19T00:01:03;11.40;99.90
8595;DHT22;4335;48.860;9.198;2023-03-19T00:03:31;11.40;99.90
8595;DHT22;4335;48.860;9.198;2023-03-19T00:05:57;11.40;99.90
8595;DHT22;4335;48.860;9.198;2023-03-19T00:08:23;11.40;99.90
8595;DHT22;4335;48.860;9.198;2023-03-19T00:10:50;11.40;99.90
8595;DHT22;4335;48.860;9.198;2023-03-19T00:13:20;11.40;99.90
8595;DHT22;4335;48.860;9.198;2023-03-19T00:25:56;11.40;99.90
8595;DHT22;4335;48.860;9.198;2023-03-19T00:28:22;11.40;99.90
8595;DHT22;4335;48.860;9.198;2023-03-19T00:30:49;11.30;99.90
8595;DHT22;4335;48.860;9.198;2023-03-19T00:46:53;11.10;99.90
8595;DHT22;4335;48.860;9.198;2023-03-19T00:49:20;11.00;99.90
8595;DHT22;4335;48.860;9.198;2023-03-19T00:51:47;11.00;99.90
8595;DHT22;4335;48.860;9.198;2023-03-19T00:54:13;11.00;99.90
8595;DHT22;4335;48.860;9.198;2023-03-19T00:56:40;11.00;99.90
8595;DHT22;4335;48.860;9.198;2023-03-19T00:59:10;11.00;99.90
8595;DHT22;4335;48.860;9.198;2023-03-19T01:01:36;11.00;99.90
8595;DHT22;4335;48.860;9.198;2023-03-19T01:04:04;11.00;99.90
8595;DHT22;4335;48.860;9.198;2023-03-19T01:06:31;11.00;99.90
8595;DHT22;4335;48.860;9.198;2023-03-19T01:09:00;11.00;99.90
8595;DHT22;4335;48.860;9.198;2023-03-19T01:11:27;11.00;99.90
8595;DHT22;4335;48.860;9.198;2023-03-19T01:13:57;11.10;99.90
8595;DHT22;4335;48.860;9.198;2023-03-19T01:16:24;11.00;99.90
8595;DHT22;4335;48.860;9.198;2023-03-19T01:18:52;11.00;99.90
8595;DHT22;4335;48.860;9.198;2023-03-19T01:21:20;11.00;99.90
8595;DHT22;4335;48.860;9.198;2023-03-19T01:23:46;11.00;99.90
8595;DHT22;4335;48.860;9.198;2023-03-19T01:26:13;11.00;99.90
8595;DHT22;4335;48.860;9.198;2023-03-19T01:28:40;11.10;99.90
8595;DHT22;4335;48.860;9.198;2023-03-19T01:31:07;11.00;99.90
8595;DHT22;4335;48.860;9.198;2023-03-19T01:34:07;11.00;99.90
8595;DHT22;4335;48.860;9.198;2023-03-19T01:40:06;11.00;99.90
8595;DHT22;4335;48.860;9.198;2023-03-19T01:42:33;11.00;99.90
8595;DHT22;4335;48.860;9.198;2023-03-19T01:45:01;11.00;99.90
8595;DHT22;4335;48.860;9.198;2023-03-19T01:47:31;11.00;99.90
8595;DHT22;4335;48.860;9.198;2023-03-19T01:49:58;11.10;99.90
8595;DHT22;4335;48.860;9.198;2023-03-19T01:52:31;11.10;99.90
8595;DHT22;4335;48.860;9.198;2023-03-19T01:55:02;11.10;99.90
8595;DHT22;4335;48.860;9.198;2023-03-19T01:57:32;11.10;99.90
8595;DHT22;4335;48.860;9.198;2023-03-19T02:00:00;11.20;99.90
8595;DHT22;4335;48.860;9.198;2023-03-19T02:02:31;11.00;99.90
8595;DHT22;4335;48.860;9.198;2023-03-19T02:05:20;11.00;99.90
8595;DHT22;4335;48.860;9.198;2023-03-19T02:08:04;11.00;99.90
8595;DHT22;4335;48.860;9.198;2023-03-19T02:10:33;11.10;99.90
8595;DHT22;4335;48.860;9.198;2023-03-19T02:13:02;11.10;99.90
8595;DHT22;4335;48.860;9.198;2023-03-19T02:15:29;11.20;99.90
8595;DHT22;4335;48.860;9.198;2023-03-19T02:17:57;11.20;99.90
8595;DHT22;4335;48.860;9.198;2023-03-19T02:20:26;11.30;99.90
8595;DHT22;4335;48.860;9.198;2023-03-19T02:23:04;11.30;99.90
8595;DHT22;4335;48.860;9.198;2023-03-19T02:25:38;11.30;99.90
8595;DHT22;4335;48.860;9.198;2023-03-19T02:28:13;11.30;99.90
8595;DHT22;4335;48.860;9.198;2023-03-19T02:30:42;11.40;99.90
8595;DHT22;4335;48.860;9.198;2023-03-19T02:33:12;11.40;99.90
8595;DHT22;4335;48.860;9.198;2023-03-19T02:35:41;11.50;99.90
8595;DHT22;4335;48.860;9.198;2023-03-19T02:38:10;11.40;99.90
8595;DHT22;4335;48.860;9.198;2023-03-19T02:40:42;11.40;99.90
8595;DHT22;4335;48.860;9.198;2023-03-19T02:43:12;11.20;99.90
8595;DHT22;4335;48.860;9.198;2023-03-19T02:45:40;11.10;99.90
8595;DHT22;4335;48.860;9.198;2023-03-19T02:48:10;11.00;99.90
8595;DHT22;4335;48.860;9.198;2023-03-19T02:50:38;11.00;99.90
8595;DHT22;4335;48.860;9.198;2023-03-19T02:53:07;10.90;99.90
8595;DHT22;4335;48.860;9.198;2023-03-19T02:55:35;10.90;99.90
8595;DHT22;4335;48.860;9.198;2023-03-19T02:58:02;10.90;99.90
8595;DHT22;4335;48.860;9.198;2023-03-19T03:00:32;10.90;99.90
8595;DHT22;4335;48.860;9.198;2023-03-19T03:03:00;11.00;99.90
8595;DHT22;4335;48.860;9.198;2023-03-19T03:05:27;11.00;99.90
8595;DHT22;4335;48.860;9.198;2023-03-19T03:07:55;11.00;99.90
8595;DHT22;4335;48.860;9.198;2023-03-19T03:10:23;11.00;99.90
8595;DHT22;4335;48.860;9.198;2023-03-19T03:12:50;11.00;99.90
8595;DHT22;4335;48.860;9.198;2023-03-19T03:15:17;11.00;99.90
8595;DHT22;4335;48.860;9.198;2023-03-19T03:17:46;11.00;99.90
8595;DHT22;4335;48.860;9.198;2023-03-19T03:20:17;11.10;99.90
8595;DHT22;4335;48.860;9.198;2023-03-19T03:22:47;11.10;99.90
8595;DHT22;4335;48.860;9.198;2023-03-19T03:25:18;11.10;99.90
8595;DHT22;4335;48.860;9.198;2023-03-19T03:27:45;11.10;99.90
8595;DHT22;4335;48.860;9.198;2023-03-19T03:30:16;11.10;99.90
8595;DHT22;4335;48.860;9.198;2023-03-19T03:32:48;11.10;99.90
8595;DHT22;4335;48.860;9.198;2023-03-19T03:35:15;11.00;99.90
8595;DHT22;4335;48.860;9.198;2023-03-19T03:37:47;11.00;99.90
8595;DHT22;4335;48.860;9.198;2023-03-19T03:40:18;11.00;99.90
8595;DHT22;4335;48.860;9.198;2023-03-19T03:42:52;11.00;99.90
8595;DHT22;4335;48.860;9.198;2023-03-19T03:45:19;10.90;99.90
8595;DHT22;4335;48.860;9.198;2023-03-19T03:47:48;10.90;99.90
8595;DHT22;4335;48.860;9.198;2023-03-19T03:50:16;10.90;99.90
8595;DHT22;4335;48.860;9.198;2023-03-19T03:52:43;10.90;99.90
8595;DHT22;4335;48.860;9.198;2023-03-19T03:55:11;10.90;99.90
8595;DHT22;4335;48.860;9.198;2023-03-19T03:57:41;10.90;99.90
8595;DHT22;4335;48.860;9.198;2023-03-19T04:00:21;10.90;99.90
8595;DHT22;4335;48.860;9.198;2023-03-19T04:02:53;10.80;99.90
8595;DHT22;4335;48.860;9.198;2023-03-19T04:05:20;10.80;99.90
8595;DHT22;4335;48.860;9.198;2023-03-19T04:07:51;10.80;99.90
8595;DHT22;4335;48.860;9.198;2023-03-19T04:10:22;10.80;99.90
8595;DHT22;4335;48.860;9.198;2023-03-19T04:12:49;10.80;99.90
8595;DHT22;4335;48.860;9.198;2023-03-19T04:15:17;10.70;99.90
8595;DHT22;4335;48.860;9.198;2023-03-19T04:17:45;10.60;99.90
8595;DHT22;4335;48.860;9.198;2023-03-19T04:20:14;10.60;99.90
8595;DHT22;4335;48.860;9.198;2023-03-19T04:22:46;10.50;99.90
8595;DHT22;4335;48.860;9.198;2023-03-19T04:25:13;10.50;99.90
8595;DHT22;4335;48.860;9.198;2023-03-19T04:27:41;10.50;99.90
8595;DHT22;4335;48.860;9.198;2023-03-19T04:30:10;10.50;99.90
8595;DHT22;4335;48.860;9.198;2023-03-19T04:32:37;10.50;99.90
8595;DHT22;4335;48.860;9.198;2023-03-19T04:35:12;10.50;99.90
8595;DHT22;4335;48.860;9.198;2023-03-19T04:37:40;10.50;99.90
8595;DHT22;4335;48.860;9.198;2023-03-19T04:40:12;10.50;99.90
8595;DHT22;4335;48.860;9.198;2023-03-19T04:42:42;10.50;99.90
8595;DHT22;4335;48.860;9.198;2023-03-19T04:45:16;10.50;99.90
8595;DHT22;4335;48.860;9.198;2023-03-19T04:47:43;10.50;99.90
8595;DHT22;4335;48.860;9.198;2023-03-19T04:50:12;10.50;99.90
8595;DHT22;4335;48.860;9.198;2023-03-19T04:52:40;10.50;99.90
8595;DHT22;4335;48.860;9.198;2023-03-19T04:55:10;10.50;99.90
8595;DHT22;4335;48.860;9.198;2023-03-19T04:57:40;10.50;99.90
8595;DHT22;4335;48.860;9.198;2023-03-19T05:00:09;10.40;99.90
8595;DHT22;4335;48.860;9.198;2023-03-19T05:02:36;10.50;99.90
8595;DHT22;4335;48.860;9.198;2023-03-19T05:05:08;10.50;99.90
8595;DHT22;4335;48.860;9.198;2023-03-19T05:07:40;10.50;99.90
8595;DHT22;4335;48.860;9.198;2023-03-19T05:10:11;10.50;99.90
8595;DHT22;4335;48.860;9.198;2023-03-19T05:12:38;10.50;99.90
8595;DHT22;4335;48.860;9.198;2023-03-19T05:15:07;10.50;99.90
8595;DHT22;4335;48.860;9.198;2023-03-19T05:17:34;10.50;99.90
8595;DHT22;4335;48.860;9.198;2023-03-19T05:20:05;10.50;99.90
8595;DHT22;4335;48.860;9.198;2023-03-19T05:22:37;10.50;99.90
8595;DHT22;4335;48.860;9.198;2023-03-19T05:25:08;10.60;99.90
8595;DHT22;4335;48.860;9.198;2023-03-19T05:27:36;10.60;99.90
8595;DHT22;4335;48.860;9.198;2023-03-19T05:30:10;10.60;99.90
8595;DHT22;4335;48.860;9.198;2023-03-19T05:32:38;10.60;99.90
8595;DHT22;4335;48.860;9.198;2023-03-19T05:35:06;10.50;99.90
8595;DHT22;4335;48.860;9.198;2023-03-19T05:37:33;10.50;99.90
8595;DHT22;4335;48.860;9.198;2023-03-19T05:40:01;10.50;99.90
8595;DHT22;4335;48.860;9.198;2023-03-19T05:42:32;10.50;99.90
8595;DHT22;4335;48.860;9.198;2023-03-19T05:45:00;10.50;99.90
8595;DHT22;4335;48.860;9.198;2023-03-19T05:47:29;10.40;99.90
8595;DHT22;4335;48.860;9.198;2023-03-19T05:50:01;10.40;99.90
8595;DHT22;4335;48.860;9.198;2023-03-19T05:52:28;10.40;99.90
8595;DHT22;4335;48.860;9.198;2023-03-19T05:54:56;10.40;99.90
8595;DHT22;4335;48.860;9.198;2023-03-19T05:57:29;10.40;99.90
8595;DHT22;4335;48.860;9.198;2023-03-19T05:59:57;10.40;99.90
8595;DHT22;4335;48.860;9.198;2023-03-19T06:02:25;10.40;99.90
8595;DHT22;4335;48.860;9.198;2023-03-19T06:04:58;10.40;99.90
8595;DHT22;4335;48.860;9.198;2023-03-19T06:07:26;10.50;99.90
8595;DHT22;4335;48.860;9.198;2023-03-19T06:09:53;10.50;99.90
8595;DHT22;4335;48.860;9.198;2023-03-19T06:12:27;10.50;99.90
8595;DHT22;4335;48.860;9.198;2023-03-19T06:14:56;10.60;99.90
8595;DHT22;4335;48.860;9.198;2023-03-19T06:17:24;10.60;99.90
8595;DHT22;4335;48.860;9.198;2023-03-19T06:19:51;10.70;99.90
8595;DHT22;4335;48.860;9.198;2023-03-19T06:22:21;10.70;99.90
8595;DHT22;4335;48.860;9.198;2023-03-19T06:24:49;10.70;99.90
8595;DHT22;4335;48.860;9.198;2023-03-19T06:27:16;10.70;99.90
8595;DHT22;4335;48.860;9.198;2023-03-19T06:29:44;10.70;99.90
8595;DHT22;4335;48.860;9.198;2023-03-19T06:32:14;10.80;99.90
8595;DHT22;4335;48.860;9.198;2023-03-19T06:34:51;10.90;99.90
8595;DHT22;4335;48.860;9.198;2023-03-19T06:37:19;11.00;99.90
8595;DHT22;4335;48.860;9.198;2023-03-19T06:39:47;11.00;99.90
8595;DHT22;4335;48.860;9.198;2023-03-19T06:42:18;11.10;99.90
8595;DHT22;4335;48.860;9.198;2023-03-19T06:44:46;11.10;99.90
8595;DHT22;4335;48.860;9.198;2023-03-19T06:47:15;11.10;99.90
8595;DHT22;4335;48.860;9.198;2023-03-19T06:49:44;11.10;99.90
8595;DHT22;4335;48.860;9.198;2023-03-19T06:52:11;11.10;99.90
8595;DHT22;4335;48.860;9.198;2023-03-19T06:54:39;11.10;99.90
8595;DHT22;4335;48.860;9.198;2023-03-19T06:57:08;11.10;99.90
8595;DHT22;4335;48.860;9.198;2023-03-19T06:59:36;11.10;99.90
8595;DHT22;4335;48.860;9.198;2023-03-19T07:02:03;11.20;99.90
8595;DHT22;4335;48.860;9.198;2023-03-19T07:04:32;11.30;99.90
8595;DHT22;4335;48.860;9.198;2023-03-19T07:06:59;11.30;99.90
8595;DHT22;4335;48.860;9.198;2023-03-19T07:09:27;11.30;99.90
8595;DHT22;4335;48.860;9.198;2023-03-19T07:11:54;11.40;99.90
8595;DHT22;4335;48.860;9.198;2023-03-19T07:14:22;11.40;99.90
8595;DHT22;4335;48.860;9.198;2023-03-19T07:16:50;11.40;99.90
8595;DHT22;4335;48.860;9.198;2023-03-19T07:19:18;11.50;99.90
8595;DHT22;4335;48.860;9.198;2023-03-19T07:21:47;11.50;99.90
8595;DHT22;4335;48.860;9.198;2023-03-19T07:24:14;11.60;99.90
8595;DHT22;4335;48.860;9.198;2023-03-19T07:26:42;11.60;99.90
8595;DHT22;4335;48.860;9.198;2023-03-19T07:29:10;11.70;99.90
8595;DHT22;4335;48.860;9.198;2023-03-19T07:31:37;11.80;99.90
8595;DHT22;4335;48.860;9.198;2023-03-19T07:34:05;11.80;99.90
8595;DHT22;4335;48.860;9.198;2023-03-19T07:36:33;11.80;99.90
8595;DHT22;4335;48.860;9.198;2023-03-19T07:39:04;11.70;99.90
8595;DHT22;4335;48.860;9.198;2023-03-19T07:41:32;11.80;99.90
8595;DHT22;4335;48.860;9.198;2023-03-19T07:43:59;11.80;99.90
8595;DHT22;4335;48.860;9.198;2023-03-19T07:46:27;11.80;99.90
8595;DHT22;4335;48.860;9.198;2023-03-19T07:49:00;11.90;99.90
8595;DHT22;4335;48.860;9.198;2023-03-19T07:51:30;12.00;99.90
8595;DHT22;4335;48.860;9.198;2023-03-19T07:53:58;12.00;99.90
8595;DHT22;4335;48.860;9.198;2023-03-19T07:56:27;12.10;99.90
8595;DHT22;4335;48.860;9.198;2023-03-19T07:58:57;12.10;99.90
8595;DHT22;4335;48.860;9.198;2023-03-19T08:01:25;12.10;99.90
8595;DHT22;4335;48.860;9.198;2023-03-19T08:03:52;12.10;99.90
8595;DHT22;4335;48.860;9.198;2023-03-19T08:06:20;12.20;99.90
8595;DHT22;4335;48.860;9.198;2023-03-19T08:08:48;12.20;99.90
8595;DHT22;4335;48.860;9.198;2023-03-19T08:11:18;12.30;99.90
8595;DHT22;4335;48.860;9.198;2023-03-19T08:13:54;12.40;99.90
8595;DHT22;4335;48.860;9.198;2023-03-19T08:16:22;12.40;99.90
8595;DHT22;4335;48.860;9.198;2023-03-19T08:18:52;12.50;99.90
8595;DHT22;4335;48.860;9.198;2023-03-19T08:21:19;12.60;99.90
8595;DHT22;4335;48.860;9.198;2023-03-19T08:23:47;12.60;99.90
8595;DHT22;4335;48.860;9.198;2023-03-19T08:26:14;12.60;99.90
8595;DHT22;4335;48.860;9.198;2023-03-19T08:28:42;12.50;99.90
8595;DHT22;4335;48.860;9.198;2023-03-19T08:31:12;12.60;99.90
8595;DHT22;4335;48.860;9.198;2023-03-19T08:33:45;12.60;99.90
8595;DHT22;4335;48.860;9.198;2023-03-19T08:36:13;12.70;99.90
8595;DHT22;4335;48.860;9.198;2023-03-19T08:38:44;12.70;99.90
8595;DHT22;4335;48.860;9.198;2023-03-19T08:41:11;12.70;99.90
8595;DHT22;4335;48.860;9.198;2023-03-19T08:43:39;12.80;99.90
8595;DHT22;4335;48.860;9.198;2023-03-19T08:46:11;12.70;99.90
8595;DHT22;4335;48.860;9.198;2023-03-19T08:48:43;12.80;99.90
8595;DHT22;4335;48.860;9.198;2023-03-19T08:51:11;12.90;99.90
8595;DHT22;4335;48.860;9.198;2023-03-19T08:53:38;13.00;99.90
8595;DHT22;4335;48.860;9.198;2023-03-19T08:56:09;13.10;99.90
8595;DHT22;4335;48.860;9.198;2023-03-19T08:58:39;13.30;99.90
8595;DHT22;4335;48.860;9.198;2023-03-19T09:01:13;13.60;99.90
8595;DHT22;4335;48.860;9.198;2023-03-19T09:03:42;13.90;99.90
8595;DHT22;4335;48.860;9.198;2023-03-19T09:06:11;14.10;99.90
8595;DHT22;4335;48.860;9.198;2023-03-19T09:08:39;14.40;99.90
8595;DHT22;4335;48.860;9.198;2023-03-19T09:11:16;14.70;99.90
8595;DHT22;4335;48.860;9.198;2023-03-19T09:13:43;14.80;99.90
8595;DHT22;4335;48.860;9.198;2023-03-19T09:16:12;14.90;99.90
8595;DHT22;4335;48.860;9.198;2023-03-19T09:18:44;15.00;99.90
8595;DHT22;4335;48.860;9.198;2023-03-19T09:21:11;15.20;99.90
8595;DHT22;4335;48.860;9.198;2023-03-19T09:23:41;15.20;99.90
8595;DHT22;4335;48.860;9.198;2023-03-19T09:26:12;15.30;99.90
8595;DHT22;4335;48.860;9.198;2023-03-19T09:28:41;15.20;99.90
8595;DHT22;4335;48.860;9.198;2023-03-19T09:31:21;15.10;99.90
8595;DHT22;4335;48.860;9.198;2023-03-19T09:33:51;15.10;99.90
8595;DHT22;4335;48.860;9.198;2023-03-19T09:36:19;15.20;99.90
8595;DHT22;4335;48.860;9.198;2023-03-19T09:38:46;15.30;99.90
8595;DHT22;4335;48.860;9.198;2023-03-19T09:41:19;15.30;99.90
8595;DHT22;4335;48.860;9.198;2023-03-19T09:43:57;15.50;99.90
8595;DHT22;4335;48.860;9.198;2023-03-19T09:46:32;15.50;99.90
8595;DHT22;4335;48.860;9.198;2023-03-19T09:49:08;15.60;99.90
8595;DHT22;4335;48.860;9.198;2023-03-19T09:51:42;15.50;99.90
8595;DHT22;4335;48.860;9.198;2023-03-19T09:54:32;15.40;99.90
8595;DHT22;4335;48.860;9.198;2023-03-19T09:57:01;15.80;99.90
8595;DHT22;4335;48.860;9.198;2023-03-19T09:59:29;17.50;99.90
8595;DHT22;4335;48.860;9.198;2023-03-19T10:02:05;19.40;99.90
8595;DHT22;4335;48.860;9.198;2023-03-19T10:04:43;21.50;99.90
8595;DHT22;4335;48.860;9.198;2023-03-19T10:07:33;23.30;99.90
8595;DHT22;4335;48.860;9.198;2023-03-19T10:10:20;25.20;96.00
8595;DHT22;4335;48.860;9.198;2023-03-19T10:12:58;26.10;89.80
8595;DHT22;4335;48.860;9.198;2023-03-19T10:15:30;25.00;86.90
8595;DHT22;4335;48.860;9.198;2023-03-19T10:18:02;24.40;89.20
8595;DHT22;4335;48.860;9.198;2023-03-19T10:20:39;24.70;86.80
8595;DHT22;4335;48.860;9.198;2023-03-19T10:23:31;25.60;83.20
8595;DHT22;4335;48.860;9.198;2023-03-19T10:26:03;25.90;80.70
8595;DHT22;4335;48.860;9.198;2023-03-19T10:28:30;26.50;76.60
8595;DHT22;4335;48.860;9.198;2023-03-19T10:31:11;26.00;74.70
8595;DHT22;4335;48.860;9.198;2023-03-19T10:33:44;25.40;77.40
8595;DHT22;4335;48.860;9.198;2023-03-19T10:36:19;25.50;75.40
8595;DHT22;4335;48.860;9.198;2023-03-19T10:38:48;25.10;76.70
8595;DHT22;4335;48.860;9.198;2023-03-19T10:41:25;25.40;77.30
8595;DHT22;4335;48.860;9.198;2023-03-19T10:44:10;25.60;76.30
8595;DHT22;4335;48.860;9.198;2023-03-19T10:46:39;25.70;75.60
8595;DHT22;4335;48.860;9.198;2023-03-19T10:49:12;25.50;74.80
8595;DHT22;4335;48.860;9.198;2023-03-19T10:51:44;24.70;75.50
8595;DHT22;4335;48.860;9.198;2023-03-19T10:54:20;24.50;78.00
8595;DHT22;4335;48.860;9.198;2023-03-19T10:56:49;24.80;76.90
8595;DHT22;4335;48.860;9.198;2023-03-19T10:59:22;25.20;75.00
8595;DHT22;4335;48.860;9.198;2023-03-19T11:01:55;25.10;74.30
8595;DHT22;4335;48.860;9.198;2023-03-19T11:04:25;24.80;76.00
8595;DHT22;4335;48.860;9.198;2023-03-19T11:07:04;24.30;76.40
8595;DHT22;4335;48.860;9.198;2023-03-19T11:09:36;24.40;76.60
8595;DHT22;4335;48.860;9.198;2023-03-19T11:12:17;24.30;75.80
8595;DHT22;4335;48.860;9.198;2023-03-19T11:14:47;23.60;74.40
8595;DHT22;4335;48.860;9.198;2023-03-19T11:17:24;23.20;75.10
8595;DHT22;4335;48.860;9.198;2023-03-19T11:19:54;22.80;75.80
8595;DHT22;4335;48.860;9.198;2023-03-19T11:22:23;22.40;74.70
8595;DHT22;4335;48.860;9.198;2023-03-19T11:24:53;21.70;77.30
8595;DHT22;4335;48.860;9.198;2023-03-19T11:27:29;20.50;75.90
8595;DHT22;4335;48.860;9.198;2023-03-19T11:29:59;20.10;77.30
8595;DHT22;4335;48.860;9.198;2023-03-19T11:33:07;19.90;79.20
8595;DHT22;4335;48.860;9.198;2023-03-19T11:35:43;19.50;80.10
8595;DHT22;4335;48.860;9.198;2023-03-19T11:38:17;19.30;81.00
8595;DHT22;4335;48.860;9.198;2023-03-19T11:40:54;19.20;82.40
8595;DHT22;4335;48.860;9.198;2023-03-19T11:43:47;19.30;83.10
8595;DHT22;4335;48.860;9.198;2023-03-19T11:46:26;19.30;84.20
8595;DHT22;4335;48.860;9.198;2023-03-19T11:49:14;19.40;84.10
8595;DHT22;4335;48.860;9.198;2023-03-19T11:51:49;19.30;85.00
8595;DHT22;4335;48.860;9.198;2023-03-19T11:54:22;19.50;85.50
8595;DHT22;4335;48.860;9.198;2023-03-19T11:56:57;19.60;86.10
8595;DHT22;4335;48.860;9.198;2023-03-19T11:59:52;19.40;86.10
8595;DHT22;4335;48.860;9.198;2023-03-19T12:05:52;19.00;87.70
8595;DHT22;4335;48.860;9.198;2023-03-19T12:08:30;18.90;89.00
8595;DHT22;4335;48.860;9.198;2023-03-19T12:11:16;18.90;90.00
8595;DHT22;4335;48.860;9.198;2023-03-19T12:14:07;18.90;90.00
8595;DHT22;4335;48.860;9.198;2023-03-19T12:16:46;18.80;90.10
8595;DHT22;4335;48.860;9.198;2023-03-19T12:19:27;18.70;89.80
8595;DHT22;4335;48.860;9.198;2023-03-19T12:22:03;18.60;89.20
8595;DHT22;4335;48.860;9.198;2023-03-19T12:24:53;18.70;89.90
8595;DHT22;4335;48.860;9.198;2023-03-19T12:27:31;18.60;89.90
8595;DHT22;4335;48.860;9.198;2023-03-19T12:30:07;18.70;90.30
8595;DHT22;4335;48.860;9.198;2023-03-19T12:32:59;18.70;90.60
8595;DHT22;4335;48.860;9.198;2023-03-19T12:35:32;18.70;90.70
8595;DHT22;4335;48.860;9.198;2023-03-19T12:38:03;18.60;91.10
8595;DHT22;4335;48.860;9.198;2023-03-19T12:40:37;18.50;91.70
8595;DHT22;4335;48.860;9.198;2023-03-19T12:43:16;18.30;91.80
8595;DHT22;4335;48.860;9.198;2023-03-19T12:45:46;18.30;91.50
8595;DHT22;4335;48.860;9.198;2023-03-19T12:48:17;18.30;92.20
8595;DHT22;4335;48.860;9.198;2023-03-19T12:50:49;18.20;93.00
8595;DHT22;4335;48.860;9.198;2023-03-19T12:53:30;17.90;95.80
8595;DHT22;4335;48.860;9.198;2023-03-19T12:56:08;17.50;97.90
8595;DHT22;4335;48.860;9.198;2023-03-19T12:58:52;17.30;99.90
8595;DHT22;4335;48.860;9.198;2023-03-19T13:01:33;17.00;99.90
8595;DHT22;4335;48.860;9.198;2023-03-19T13:04:10;16.80;99.90
8595;DHT22;4335;48.860;9.198;2023-03-19T13:06:43;16.50;99.90
8595;DHT22;4335;48.860;9.198;2023-03-19T13:09:26;16.40;99.90
8595;DHT22;4335;48.860;9.198;2023-03-19T13:11:59;16.30;99.90
8595;DHT22;4335;48.860;9.198;2023-03-19T13:14:33;16.10;99.90
8595;DHT22;4335;48.860;9.198;2023-03-19T13:17:10;16.00;99.90
8595;DHT22;4335;48.860;9.198;2023-03-19T13:19:43;15.90;99.90
8595;DHT22;4335;48.860;9.198;2023-03-19T13:22:14;15.60;99.90
8595;DHT22;4335;48.860;9.198;2023-03-19T13:24:43;15.40;99.90
8595;DHT22;4335;48.860;9.198;2023-03-19T13:27:18;15.20;99.90
8595;DHT22;4335;48.860;9.198;2023-03-19T13:29:57;15.20;99.90
8595;DHT22;4335;48.860;9.198;2023-03-19T13:32:34;15.10;99.90
8595;DHT22;4335;48.860;9.198;2023-03-19T13:35:24;15.10;99.90
8595;DHT22;4335;48.860;9.198;2023-03-19T13:38:01;14.90;99.90
8595;DHT22;4335;48.860;9.198;2023-03-19T13:40:41;14.90;99.90
8595;DHT22;4335;48.860;9.198;2023-03-19T13:46:48;14.90;99.90
8595;DHT22;4335;48.860;9.198;2023-03-19T13:49:29;15.00;99.90
8595;DHT22;4335;48.860;9.198;2023-03-19T13:52:01;15.20;99.90
8595;DHT22;4335;48.860;9.198;2023-03-19T13:54:40;15.40;99.90
8595;DHT22;4335;48.860;9.198;2023-03-19T13:57:20;15.50;99.90
8595;DHT22;4335;48.860;9.198;2023-03-19T14:03:21;15.70;99.90
8595;DHT22;4335;48.860;9.198;2023-03-19T14:05:50;15.80;99.90
8595;DHT22;4335;48.860;9.198;2023-03-19T14:08:21;15.80;99.90
8595;DHT22;4335;48.860;9.198;2023-03-19T14:10:52;15.90;99.90
8595;DHT22;4335;48.860;9.198;2023-03-19T14:13:32;15.90;99.90
8595;DHT22;4335;48.860;9.198;2023-03-19T14:16:04;15.80;99.90
8595;DHT22;4335;48.860;9.198;2023-03-19T14:18:38;15.90;99.90
8595;DHT22;4335;48.860;9.198;2023-03-19T14:21:09;15.80;99.90
8595;DHT22;4335;48.860;9.198;2023-03-19T14:23:39;15.90;99.90
8595;DHT22;4335;48.860;9.198;2023-03-19T14:26:14;15.80;99.90
8595;DHT22;4335;48.860;9.198;2023-03-19T14:28:54;15.90;99.90
8595;DHT22;4335;48.860;9.198;2023-03-19T14:31:28;15.90;99.90
8595;DHT22;4335;48.860;9.198;2023-03-19T14:34:18;15.90;99.90
8595;DHT22;4335;48.860;9.198;2023-03-19T14:36:50;15.90;99.90
8595;DHT22;4335;48.860;9.198;2023-03-19T14:39:22;15.90;99.90
8595;DHT22;4335;48.860;9.198;2023-03-19T14:41:57;15.90;99.90
8595;DHT22;4335;48.860;9.198;2023-03-19T14:53:37;15.70;99.90
8595;DHT22;4335;48.860;9.198;2023-03-19T14:56:13;15.30;99.90
8595;DHT22;4335;48.860;9.198;2023-03-19T14:58:48;15.20;99.90
8595;DHT22;4335;48.860;9.198;2023-03-19T15:01:16;15.20;99.90
8595;DHT22;4335;48.860;9.198;2023-03-19T15:03:44;15.00;99.90
8595;DHT22;4335;48.860;9.198;2023-03-19T15:06:13;15.00;99.90
8595;DHT22;4335;48.860;9.198;2023-03-19T15:08:42;14.80;99.90
8595;DHT22;4335;48.860;9.198;2023-03-19T15:11:29;14.60;99.90
8595;DHT22;4335;48.860;9.198;2023-03-19T15:14:21;14.60;99.90
8595;DHT22;4335;48.860;9.198;2023-03-19T15:16:58;14.50;99.90
8595;DHT22;4335;48.860;9.198;2023-03-19T15:19:29;14.50;99.90
8595;DHT22;4335;48.860;9.198;2023-03-19T15:22:04;14.40;99.90
8595;DHT22;4335;48.860;9.198;2023-03-19T15:24:34;14.40;99.90
8595;DHT22;4335;48.860;9.198;2023-03-19T15:27:01;14.30;99.90
8595;DHT22;4335;48.860;9.198;2023-03-19T15:29:32;14.10;99.90
8595;DHT22;4335;48.860;9.198;2023-03-19T15:32:00;14.20;99.90
8595;DHT22;4335;48.860;9.198;2023-03-19T15:34:28;14.20;99.90
8595;DHT22;4335;48.860;9.198;2023-03-19T15:37:01;14.20;99.90
8595;DHT22;4335;48.860;9.198;2023-03-19T15:39:35;14.30;99.90
8595;DHT22;4335;48.860;9.198;2023-03-19T15:42:04;14.40;99.90
8595;DHT22;4335;48.860;9.198;2023-03-19T15:44:37;14.40;99.90
8595;DHT22;4335;48.860;9.198;2023-03-19T15:47:12;14.30;99.90
8595;DHT22;4335;48.860;9.198;2023-03-19T15:49:42;14.30;99.90
8595;DHT22;4335;48.860;9.198;2023-03-19T15:52:13;14.30;99.90
8595;DHT22;4335;48.860;9.198;2023-03-19T15:54:43;14.20;99.90
8595;DHT22;4335;48.860;9.198;2023-03-19T15:57:16;14.10;99.90
8595;DHT22;4335;48.860;9.198;2023-03-19T15:59:44;14.10;99.90
8595;DHT22;4335;48.860;9.198;2023-03-19T16:02:21;14.10;99.90
8595;DHT22;4335;48.860;9.198;2023-03-19T16:04:50;14.10;99.90
8595;DHT22;4335;48.860;9.198;2023-03-19T16:07:23;14.10;99.90
8595;DHT22;4335;48.860;9.198;2023-03-19T16:09:55;14.10;99.90
8595;DHT22;4335;48.860;9.198;2023-03-19T16:12:35;14.00;99.90
8595;DHT22;4335;48.860;9.198;2023-03-19T16:15:21;13.90;99.90
8595;DHT22;4335;48.860;9.198;2023-03-19T16:17:49;13.80;99.90
8595;DHT22;4335;48.860;9.198;2023-03-19T16:20:17;13.80;99.90
8595;DHT22;4335;48.860;9.198;2023-03-19T16:22:50;13.80;99.90
8595;DHT22;4335;48.860;9.198;2023-03-19T16:25:25;13.80;99.90
8595;DHT22;4335;48.860;9.198;2023-03-19T16:27:54;13.70;99.90
8595;DHT22;4335;48.860;9.198;2023-03-19T16:30:23;13.70;99.90
8595;DHT22;4335;48.860;9.198;2023-03-19T16:32:58;13.60;99.90
8595;DHT22;4335;48.860;9.198;2023-03-19T16:35:26;13.60;99.90
8595;DHT22;4335;48.860;9.198;2023-03-19T16:38:05;13.50;99.90
8595;DHT22;4335;48.860;9.198;2023-03-19T16:40:47;13.50;99.90
8595;DHT22;4335;48.860;9.198;2023-03-19T16:43:19;13.50;99.90
8595;DHT22;4335;48.860;9.198;2023-03-19T16:45:51;13.50;99.90
8595;DHT22;4335;48.860;9.198;2023-03-19T16:48:21;13.50;99.90
8595;DHT22;4335;48.860;9.198;2023-03-19T16:50:48;13.50;99.90
8595;DHT22;4335;48.860;9.198;2023-03-19T16:53:24;13.50;99.90
8595;DHT22;4335;48.860;9.198;2023-03-19T16:55:55;13.50;99.90
8595;DHT22;4335;48.860;9.198;2023-03-19T16:58:27;13.40;99.90
8595;DHT22;4335;48.860;9.198;2023-03-19T17:00:58;13.40;99.90
8595;DHT22;4335;48.860;9.198;2023-03-19T17:03:26;13.30;99.90
8595;DHT22;4335;48.860;9.198;2023-03-19T17:05:58;13.20;99.90
8595;DHT22;4335;48.860;9.198;2023-03-19T17:08:25;13.20;99.90
8595;DHT22;4335;48.860;9.198;2023-03-19T17:10:54;13.10;99.90
8595;DHT22;4335;48.860;9.198;2023-03-19T17:13:23;13.10;99.90
8595;DHT22;4335;48.860;9.198;2023-03-19T17:15:53;13.10;99.90
8595;DHT22;4335;48.860;9.198;2023-03-19T17:18:29;13.10;99.90